Time;durP1;ratioP1;P1;durP2;ratioP2;P2;SDS_P1;SDS_P2;PMS_P1;PMS_P2;Temp;Humidity;BMP_temperature;BMP_pressure;BME280_temperature;BME280_humidity;BME280_pressure;Samples;Min_cycle;Max_cycle;Signal;HPM_P1;HPM_P2
2023/04/10 04:05:26;;;;;;;2.90;2.70;;;3.70;99.90;;;;;;5374368;23;20252;-65
2023/04/10 04:07:51;;;;;;;1.60;1.50;;;3.60;99.90;;;;;;4956288;29;20181;-64
2023/04/10 04:10:17;;;;;;;3.55;2.60;;;3.60;99.90;;;;;;4956223;29;20467;-65
2023/04/10 04:12:43;;;;;;;2.50;2.30;;;3.60;99.90;;;;;;4956343;29;20247;-65
2023/04/10 04:15:09;;;;;;;3.20;3.00;;;3.60;99.90;;;;;;4955689;28;20181;-65
2023/04/10 04:17:34;;;;;;;3.33;3.13;;;3.60;99.90;;;;;;4956554;29;20256;-65
2023/04/10 04:20:00;;;;;;;5.43;2.80;;;3.50;99.90;;;;;;4956572;29;20416;-65
2023/04/10 04:22:26;;;;;;;2.30;1.90;;;3.50;99.90;;;;;;4956618;29;20169;-65
2023/04/10 04:24:51;;;;;;;2.30;2.20;;;3.50;99.90;;;;;;4957982;28;20360;-65
2023/04/10 04:27:20;;;;;;;2.60;1.67;;;3.50;99.90;;;;;;4957704;29;20791;-65
2023/04/10 04:29:46;;;;;;;4.05;3.70;;;3.60;99.90;;;;;;4957309;28;20251;-65
2023/04/10 04:32:11;;;;;;;4.87;2.10;;;3.60;99.90;;;;;;4955874;28;20207;-65
2023/04/10 04:34:37;;;;;;;1.60;1.50;;;3.60;99.90;;;;;;4954783;29;20200;-64
2023/04/10 04:37:04;;;;;;;6.53;2.70;;;3.60;99.90;;;;;;4955767;29;20176;-65
2023/04/10 04:39:30;;;;;;;3.83;3.30;;;3.70;99.90;;;;;;4955690;29;20259;-64
2023/04/10 04:41:55;;;;;;;4.33;1.53;;;3.70;99.90;;;;;;4955673;29;20670;-64
2023/04/10 04:44:21;;;;;;;1.63;1.53;;;3.70;99.90;;;;;;4954981;29;20972;-65
2023/04/10 04:46:46;;;;;;;2.90;2.53;;;3.80;99.90;;;;;;4955730;29;20299;-65
2023/04/10 04:49:12;;;;;;;2.60;1.83;;;3.80;99.90;;;;;;4956143;29;20187;-66
2023/04/10 04:51:38;;;;;;;5.30;2.20;;;3.80;99.90;;;;;;4956293;29;20527;-65
2023/04/10 04:54:04;;;;;;;3.57;3.00;;;3.90;99.90;;;;;;4955555;29;20200;-65
2023/04/10 04:56:29;;;;;;;4.70;2.67;;;4.00;99.90;;;;;;4956044;29;20168;-65
2023/04/10 04:58:55;;;;;;;3.17;2.73;;;4.00;99.90;;;;;;4956802;29;20184;-65
2023/04/10 05:01:21;;;;;;;2.53;2.43;;;4.10;99.90;;;;;;4956741;29;20180;-65
2023/04/10 05:03:46;;;;;;;4.33;3.43;;;4.20;99.90;;;;;;4954800;29;20176;-66
2023/04/10 05:06:13;;;;;;;3.70;3.40;;;4.30;99.90;;;;;;4937828;29;20686;-64
2023/04/10 05:08:38;;;;;;;2.80;2.60;;;4.40;99.90;;;;;;4955348;29;20260;-64
2023/04/10 05:11:05;;;;;;;4.13;3.80;;;4.70;99.90;;;;;;4955064;29;20201;-65
2023/04/10 05:13:30;;;;;;;3.67;3.33;;;5.00;99.90;;;;;;4954536;29;20181;-64
2023/04/10 05:15:56;;;;;;;3.80;2.40;;;5.50;99.90;;;;;;4955234;29;20192;-64
2023/04/10 05:18:22;;;;;;;6.23;3.27;;;5.90;99.90;;;;;;4955123;29;20175;-66
2023/04/10 05:20:49;;;;;;;4.60;4.15;;;6.20;99.90;;;;;;4955150;29;20561;-65
2023/04/10 05:23:15;;;;;;;3.22;2.92;;;6.50;99.90;;;;;;4954385;29;20190;-65
2023/04/10 05:25:41;;;;;;;3.08;2.83;;;6.70;99.90;;;;;;4954892;29;20279;-65
2023/04/10 05:28:07;;;;;;;3.90;2.50;;;6.80;99.90;;;;;;4954817;29;20600;-65
2023/04/10 05:30:33;;;;;;;3.03;2.77;;;6.80;99.90;;;;;;4955026;29;20174;-65
2023/04/10 05:32:58;;;;;;;4.50;3.10;;;6.80;99.90;;;;;;4954774;29;20412;-65
2023/04/10 05:35:24;;;;;;;4.90;4.23;;;6.80;99.90;;;;;;4937635;29;20228;-66
2023/04/10 05:37:49;;;;;;;3.47;2.57;;;6.80;99.90;;;;;;4954593;28;20175;-65
2023/04/10 05:40:15;;;;;;;2.50;2.33;;;6.80;99.90;;;;;;4954747;29;20172;-66
2023/04/10 05:42:41;;;;;;;2.10;1.97;;;6.90;99.90;;;;;;4954930;29;20190;-66
2023/04/10 05:45:06;;;;;;;2.23;2.03;;;6.90;99.90;;;;;;4954420;29;20195;-65
2023/04/10 05:47:32;;;;;;;3.00;2.80;;;7.00;99.90;;;;;;4954945;29;20202;-66
2023/04/10 05:49:58;;;;;;;6.63;4.03;;;7.10;99.90;;;;;;4954822;29;20407;-66
2023/04/10 05:52:24;;;;;;;3.00;2.67;;;7.20;99.90;;;;;;4962990;28;20179;-66
2023/04/10 05:54:50;;;;;;;2.57;2.40;;;7.30;99.90;;;;;;4973483;28;20426;-66
2023/04/10 05:57:16;;;;;;;2.72;2.53;;;7.40;99.90;;;;;;4973894;28;20258;-66
2023/04/10 05:59:42;;;;;;;2.10;2.00;;;7.60;99.90;;;;;;4973979;28;20275;-66
2023/04/10 06:02:07;;;;;;;3.37;2.97;;;7.90;99.90;;;;;;4973890;28;20173;-64
2023/04/10 06:04:33;;;;;;;3.67;3.13;;;8.10;99.90;;;;;;4973341;28;20658;-65
2023/04/10 06:06:58;;;;;;;2.63;1.83;;;8.30;99.90;;;;;;4951297;28;20207;-65
2023/04/10 06:09:24;;;;;;;3.77;2.60;;;8.60;99.90;;;;;;4973623;28;20172;-65
2023/04/10 06:11:50;;;;;;;2.97;2.03;;;8.80;99.90;;;;;;4973568;28;20300;-65
2023/04/10 06:14:17;;;;;;;3.08;2.40;;;8.90;99.90;;;;;;4975441;28;20279;-64
2023/04/10 06:16:43;;;;;;;5.68;2.90;;;9.00;99.90;;;;;;4959978;28;20176;-65
2023/04/10 06:19:08;;;;;;;5.03;3.87;;;9.30;99.90;;;;;;4977322;28;20183;-66
2023/04/10 06:21:34;;;;;;;3.20;2.50;;;9.50;99.90;;;;;;4963604;28;20188;-64
2023/04/10 06:24:00;;;;;;;5.43;3.27;;;9.80;99.90;;;;;;4957331;29;20196;-65
2023/04/10 06:26:26;;;;;;;3.13;2.30;;;10.00;99.80;;;;;;4957722;28;20229;-67
2023/04/10 06:28:51;;;;;;;3.30;3.00;;;10.20;99.20;;;;;;4976295;28;20187;-66
2023/04/10 06:31:20;;;;;;;3.00;2.67;;;10.40;98.80;;;;;;4976955;28;20635;-65
2023/04/10 06:33:47;;;;;;;3.72;3.42;;;10.50;98.30;;;;;;4976596;28;20638;-65
2023/04/10 06:36:12;;;;;;;3.47;3.27;;;10.50;98.80;;;;;;4959613;28;20234;-65
2023/04/10 06:38:38;;;;;;;2.70;2.07;;;10.60;97.60;;;;;;4959403;28;20448;-64
2023/04/10 06:41:05;;;;;;;2.97;2.20;;;10.60;97.10;;;;;;4976806;28;20243;-65
2023/04/10 06:43:35;;;;;;;2.70;2.47;;;10.60;96.70;;;;;;4974736;28;20185;-65
2023/04/10 06:46:03;;;;;;;2.50;2.30;;;10.70;97.10;;;;;;4959352;28;20301;-66
2023/04/10 06:48:29;;;;;;;4.27;3.33;;;10.90;96.10;;;;;;4975178;28;20487;-66
2023/04/10 06:50:54;;;;;;;3.37;2.37;;;11.10;96.30;;;;;;4976147;28;20922;-66
2023/04/10 06:53:20;;;;;;;3.20;2.77;;;11.30;96.00;;;;;;4975911;28;20178;-65
2023/04/10 06:55:47;;;;;;;2.60;2.40;;;11.60;95.40;;;;;;4976317;28;20256;-65
2023/04/10 06:58:13;;;;;;;3.47;2.37;;;11.70;94.50;;;;;;4975735;28;20247;-65
2023/04/10 07:00:38;;;;;;;3.97;2.13;;;11.90;94.30;;;;;;4976665;28;20401;-66
2023/04/10 07:03:04;;;;;;;2.30;2.10;;;12.20;93.60;;;;;;4976190;28;20170;-67
2023/04/10 07:05:29;;;;;;;2.27;2.07;;;12.30;93.00;;;;;;4976039;28;20554;-64
2023/04/10 07:07:55;;;;;;;4.00;3.13;;;12.40;93.00;;;;;;4976350;28;20203;-65
2023/04/10 07:10:21;;;;;;;2.47;2.10;;;12.60;92.20;;;;;;4975941;28;20542;-66
2023/04/10 07:12:46;;;;;;;2.07;1.80;;;12.80;91.90;;;;;;4976255;28;20168;-71
2023/04/10 07:15:12;;;;;;;2.27;2.07;;;13.20;91.30;;;;;;4975699;28;20527;-66
2023/04/10 07:17:38;;;;;;;2.83;2.57;;;13.70;90.60;;;;;;4976263;28;20167;-66
2023/04/10 07:20:04;;;;;;;1.70;1.53;;;14.20;89.20;;;;;;4976796;28;20173;-65
2023/04/10 07:22:30;;;;;;;2.00;1.83;;;14.60;88.10;;;;;;4978215;28;20170;-65
2023/04/10 07:24:56;;;;;;;2.10;1.90;;;15.00;87.10;;;;;;4967012;28;20534;-65
2023/04/10 07:27:23;;;;;;;2.30;2.10;;;15.30;84.70;;;;;;4957008;29;20948;-65
2023/04/10 07:29:49;;;;;;;4.27;3.03;;;15.50;82.80;;;;;;4958268;29;20242;-66
2023/04/10 07:32:15;;;;;;;1.97;1.87;;;15.60;82.10;;;;;;4956563;29;20413;-66
2023/04/10 07:34:41;;;;;;;3.13;2.13;;;15.70;80.90;;;;;;4956064;29;20497;-66
2023/04/10 07:37:06;;;;;;;2.70;2.50;;;15.70;80.60;;;;;;4956603;29;20176;-66
2023/04/10 07:39:33;;;;;;;2.93;2.37;;;15.70;80.40;;;;;;4956601;29;20774;-66
2023/04/10 07:41:59;;;;;;;2.47;2.13;;;15.60;80.80;;;;;;4956678;29;20261;-64
2023/04/10 07:44:25;;;;;;;2.87;2.33;;;15.80;80.20;;;;;;4955822;29;20512;-65
2023/04/10 07:46:51;;;;;;;2.83;2.60;;;15.80;80.30;;;;;;4956376;29;20193;-66
2023/04/10 07:49:17;;;;;;;3.33;3.03;;;16.00;79.40;;;;;;4956252;29;20461;-65
2023/04/10 07:51:42;;;;;;;2.43;2.20;;;16.40;79.10;;;;;;4962240;28;20178;-66
2023/04/10 07:54:08;;;;;;;2.57;2.37;;;16.80;78.60;;;;;;4974579;28;20198;-65
2023/04/10 07:56:34;;;;;;;1.97;1.83;;;17.50;76.90;;;;;;4975539;28;20181;-66
2023/04/10 07:59:00;;;;;;;2.23;2.03;;;18.30;75.50;;;;;;4975581;28;20173;-66
2023/04/10 08:01:26;;;;;;;1.90;1.80;;;19.00;74.00;;;;;;4975348;28;20168;-65
2023/04/10 08:03:52;;;;;;;1.80;1.70;;;19.80;70.70;;;;;;4974892;28;20164;-66
2023/04/10 08:06:18;;;;;;;3.40;2.23;;;20.30;69.40;;;;;;4974770;28;20822;-65
2023/04/10 08:08:43;;;;;;;2.40;2.20;;;21.10;66.60;;;;;;4975404;28;20258;-67
2023/04/10 08:11:27;;;;;;;2.43;2.23;;;21.80;63.70;;;;;;4975367;28;20174;-65
2023/04/10 08:13:54;;;;;;;3.03;2.33;;;22.40;62.40;;;;;;4957264;28;20646;-65
2023/04/10 08:16:24;;;;;;;1.90;1.80;;;22.60;60.00;;;;;;4975279;28;20896;-65
2023/04/10 08:18:54;;;;;;;3.10;2.73;;;22.90;59.70;;;;;;4974946;28;20408;-66
2023/04/10 08:21:24;;;;;;;2.47;2.20;;;23.00;59.00;;;;;;4960248;28;20990;-65
2023/04/10 08:23:51;;;;;;;1.60;1.50;;;23.10;57.60;;;;;;4955206;29;20724;-65
2023/04/10 08:26:18;;;;;;;3.30;2.80;;;23.30;56.50;;;;;;4955253;29;20422;-67
2023/04/10 08:28:48;;;;;;;2.40;2.20;;;23.30;55.60;;;;;;4955366;29;20920;-67
2023/04/10 08:31:13;;;;;;;1.77;1.67;;;23.40;56.30;;;;;;4955419;29;20907;-66
2023/04/10 08:33:39;;;;;;;2.43;2.27;;;23.60;55.00;;;;;;4937184;29;20420;-65
2023/04/10 08:36:05;;;;;;;1.90;1.80;;;23.60;54.40;;;;;;4955068;28;20173;-66
2023/04/10 08:38:31;;;;;;;2.53;2.33;;;23.40;53.90;;;;;;4938261;29;20173;-65
2023/04/10 08:40:57;;;;;;;2.20;2.10;;;23.20;54.50;;;;;;4955365;29;20416;-67
2023/04/10 08:43:22;;;;;;;1.87;1.63;;;23.00;54.20;;;;;;4954849;29;20594;-66
2023/04/10 08:45:48;;;;;;;1.77;1.67;;;22.90;54.10;;;;;;4955181;29;20430;-66
2023/04/10 08:48:17;;;;;;;1.53;1.43;;;22.80;53.90;;;;;;4955078;29;20541;-67
2023/04/10 08:50:44;;;;;;;1.90;1.73;;;22.70;53.60;;;;;;4955419;29;20417;-67
2023/04/10 08:53:12;;;;;;;2.47;1.67;;;22.70;54.30;;;;;;4955055;29;20382;-66
2023/04/10 08:55:39;;;;;;;2.87;1.77;;;22.80;54.20;;;;;;4938021;29;20432;-66
2023/04/10 08:58:05;;;;;;;1.70;1.60;;;23.20;54.20;;;;;;4955158;29;20408;-66
2023/04/10 09:00:33;;;;;;;1.43;1.30;;;23.70;53.30;;;;;;4955043;29;20406;-66
2023/04/10 09:03:17;;;;;;;2.70;2.27;;;23.80;52.80;;;;;;4954932;29;20948;-66
2023/04/10 09:05:43;;;;;;;1.97;1.87;;;23.60;52.40;;;;;;4955271;29;20448;-65
2023/04/10 09:08:12;;;;;;;2.07;1.97;;;23.40;52.40;;;;;;4955094;29;20465;-65
2023/04/10 09:10:38;;;;;;;1.90;1.80;;;23.20;52.80;;;;;;4955011;29;20173;-66
2023/04/10 09:13:03;;;;;;;2.17;1.60;;;23.50;52.30;;;;;;4954788;29;20488;-66
2023/04/10 09:15:29;;;;;;;1.70;1.60;;;23.80;52.20;;;;;;4954809;28;20295;-65
2023/04/10 09:17:57;;;;;;;1.80;1.70;;;24.10;52.00;;;;;;4953701;29;20539;-65
2023/04/10 09:20:25;;;;;;;1.83;1.70;;;24.10;51.80;;;;;;4954561;29;20181;-66
2023/04/10 09:22:51;;;;;;;2.50;2.30;;;24.30;51.30;;;;;;4956361;28;20396;-67
2023/04/10 09:25:40;;;;;;;1.80;1.70;;;24.50;50.90;;;;;;4957330;28;20415;-66
2023/04/10 09:28:07;;;;;;;2.60;2.10;;;24.60;51.10;;;;;;4954893;29;20413;-66
2023/04/10 09:30:36;;;;;;;2.50;2.30;;;25.00;50.30;;;;;;4954963;29;20367;-66
2023/04/10 09:33:19;;;;;;;2.40;1.90;;;25.10;50.90;;;;;;4953540;29;20411;-67
2023/04/10 09:35:45;;;;;;;1.47;1.37;;;25.20;49.80;;;;;;4954796;28;20398;-66
2023/04/10 09:38:15;;;;;;;3.17;2.37;;;25.30;49.60;;;;;;4954577;28;20417;-66
2023/04/10 09:40:41;;;;;;;1.63;1.53;;;25.50;49.20;;;;;;4954219;29;20543;-67
2023/04/10 09:43:24;;;;;;;1.40;1.30;;;25.60;48.90;;;;;;4953966;29;20417;-67
2023/04/10 09:45:55;;;;;;;1.90;1.73;;;25.70;48.50;;;;;;4955089;28;20678;-67
2023/04/10 09:48:22;;;;;;;1.90;1.80;;;25.40;48.60;;;;;;4941843;29;20431;-66
2023/04/10 09:50:48;;;;;;;1.60;1.50;;;25.10;48.50;;;;;;4957388;29;20427;-66
2023/04/10 09:53:16;;;;;;;1.53;1.43;;;25.10;48.60;;;;;;4956776;29;20399;-67
2023/04/10 09:55:42;;;;;;;2.20;2.10;;;25.30;48.70;;;;;;4957802;29;20216;-66
2023/04/10 09:58:09;;;;;;;1.80;1.70;;;25.40;48.40;;;;;;4957886;29;20400;-66
2023/04/10 10:00:46;;;;;;;1.50;1.40;;;25.40;48.00;;;;;;4957842;28;20742;-66
2023/04/10 10:03:16;;;;;;;1.60;1.50;;;25.20;48.10;;;;;;4950293;29;20475;-67
2023/04/10 10:05:50;;;;;;;1.83;1.73;;;25.30;48.20;;;;;;4954574;29;20959;-66
2023/04/10 10:08:16;;;;;;;1.53;1.43;;;25.40;47.40;;;;;;4957350;29;20508;-65
2023/04/10 10:10:55;;;;;;;1.13;1.10;;;25.40;46.90;;;;;;4957145;29;20395;-67
2023/04/10 10:13:36;;;;;;;1.70;1.60;;;25.20;46.70;;;;;;4957411;29;20456;-66
2023/04/10 10:16:05;;;;;;;2.10;1.70;;;25.00;46.70;;;;;;4961161;28;20425;-66
2023/04/10 10:18:44;;;;;;;2.23;2.03;;;25.10;46.90;;;;;;4957453;29;20406;-67
2023/04/10 10:21:13;;;;;;;1.00;1.00;;;24.90;46.70;;;;;;4957416;29;20395;-65
2023/04/10 10:23:41;;;;;;;1.23;1.23;;;24.60;46.70;;;;;;4940021;29;20757;-66
2023/04/10 10:26:08;;;;;;;1.60;1.37;;;24.60;47.10;;;;;;4957393;29;20455;-68
2023/04/10 10:28:35;;;;;;;1.10;1.10;;;24.50;47.50;;;;;;4957366;29;20429;-65
2023/04/10 10:31:02;;;;;;;2.53;1.80;;;24.40;46.90;;;;;;4956101;28;20399;-67
2023/04/10 10:33:29;;;;;;;1.40;1.30;;;24.20;47.20;;;;;;4956794;29;20424;-67
2023/04/10 10:35:59;;;;;;;1.30;1.20;;;24.10;47.20;;;;;;4957134;28;20415;-66
2023/04/10 10:38:27;;;;;;;1.20;1.10;;;24.00;46.80;;;;;;4957074;29;20415;-65
2023/04/10 10:41:08;;;;;;;1.50;1.40;;;24.10;46.60;;;;;;4957385;29;20425;-66
2023/04/10 10:43:57;;;;;;;1.13;1.13;;;24.30;46.40;;;;;;4956745;29;20471;-67
2023/04/10 10:46:36;;;;;;;1.13;1.03;;;24.40;45.20;;;;;;4954680;29;20471;-64
2023/04/10 10:49:02;;;;;;;1.40;1.30;;;24.20;45.70;;;;;;4956380;29;20435;-67
2023/04/10 10:51:49;;;;;;;1.00;0.90;;;24.10;45.70;;;;;;4957016;29;20718;-68
2023/04/10 10:54:47;;;;;;;0.80;0.80;;;24.00;44.90;;;;;;4954170;28;20215;-67
2023/04/10 10:57:53;;;;;;;1.20;1.10;;;24.00;45.20;;;;;;4923759;29;20753;-66
2023/04/10 11:00:19;;;;;;;0.97;0.80;;;23.80;46.50;;;;;;4952465;28;20548;-67
2023/04/10 11:03:09;;;;;;;1.27;1.17;;;23.60;45.40;;;;;;4946649;29;20474;-69
2023/04/10 11:05:51;;;;;;;0.90;0.90;;;23.50;45.00;;;;;;4956699;28;20436;-66
2023/04/10 11:08:43;;;;;;;1.37;1.27;;;23.30;45.40;;;;;;4956941;28;20432;-66
2023/04/10 11:11:11;;;;;;;1.20;1.10;;;22.90;45.40;;;;;;4957053;29;20470;-66
2023/04/10 11:13:56;;;;;;;0.97;0.97;;;22.40;45.70;;;;;;4956287;29;20903;-66
2023/04/10 11:16:45;;;;;;;1.03;0.73;;;21.90;46.00;;;;;;4939560;29;20431;-66
2023/04/10 11:19:11;;;;;;;1.73;1.27;;;21.60;46.60;;;;;;4939749;29;20413;-66
2023/04/10 11:22:04;;;;;;;1.43;1.33;;;21.30;46.70;;;;;;4966445;28;20451;-65
2023/04/10 11:24:52;;;;;;;1.10;1.00;;;21.10;46.30;;;;;;4959481;28;20457;-66
2023/04/10 11:27:38;;;;;;;0.70;0.70;;;20.80;47.30;;;;;;4956512;29;20817;-66
2023/04/10 11:30:23;;;;;;;1.17;1.07;;;20.60;47.80;;;;;;4942920;29;20393;-68
2023/04/10 11:32:49;;;;;;;1.23;1.13;;;20.50;49.20;;;;;;4955998;29;20420;-74
2023/04/10 11:35:18;;;;;;;1.10;1.00;;;20.50;48.20;;;;;;4939579;28;20443;-67
2023/04/10 11:37:44;;;;;;;1.00;0.90;;;20.40;47.80;;;;;;4939543;29;20181;-67
2023/04/10 11:40:10;;;;;;;0.83;0.83;;;20.20;48.30;;;;;;4956049;29;20412;-66
2023/04/10 11:42:36;;;;;;;1.03;1.00;;;20.10;47.10;;;;;;4955882;29;20173;-67
2023/04/10 11:45:22;;;;;;;1.67;1.47;;;19.90;46.70;;;;;;4955612;29;20441;-66
2023/04/10 11:47:54;;;;;;;1.37;1.27;;;19.50;47.00;;;;;;4945714;29;20468;-65
2023/04/10 11:50:20;;;;;;;1.10;1.00;;;19.30;48.00;;;;;;4959625;28;20995;-65
2023/04/10 11:52:50;;;;;;;0.77;0.77;;;19.10;47.40;;;;;;4975596;28;20407;-65
2023/04/10 11:55:16;;;;;;;0.80;0.80;;;19.10;47.80;;;;;;4974932;28;20196;-66
2023/04/10 11:57:42;;;;;;;0.93;0.60;;;19.00;47.80;;;;;;4975859;28;20932;-65
2023/04/10 12:00:09;;;;;;;0.80;0.80;;;18.90;47.80;;;;;;4975528;28;20404;-65
2023/04/10 12:02:47;;;;;;;0.80;0.80;;;18.80;48.30;;;;;;4975545;28;20498;-66
2023/04/10 12:05:12;;;;;;;0.73;0.73;;;18.80;49.50;;;;;;4974378;28;20459;-66
2023/04/10 12:07:38;;;;;;;1.33;1.23;;;18.80;49.60;;;;;;4975204;28;20460;-66
2023/04/10 12:10:05;;;;;;;0.73;0.73;;;18.80;49.40;;;;;;4975613;28;20623;-66
2023/04/10 12:12:35;;;;;;;0.73;0.73;;;18.90;49.00;;;;;;4974570;28;20176;-67
2023/04/10 12:15:02;;;;;;;0.80;0.80;;;19.00;46.30;;;;;;4974898;28;20433;-66
2023/04/10 12:17:27;;;;;;;1.03;0.93;;;19.00;46.50;;;;;;4975071;28;20381;-67
2023/04/10 12:19:53;;;;;;;0.60;0.60;;;18.80;46.40;;;;;;4963648;28;20443;-67
2023/04/10 12:22:19;;;;;;;0.60;0.60;;;18.80;46.40;;;;;;4956092;29;20391;-66
2023/04/10 12:24:52;;;;;;;0.83;0.77;;;18.70;45.50;;;;;;4955315;29;20224;-67
2023/04/10 12:27:24;;;;;;;0.50;0.50;;;18.70;45.70;;;;;;4955586;29;20551;-66
2023/04/10 12:29:52;;;;;;;0.60;0.60;;;18.70;45.20;;;;;;4955726;29;20404;-65
2023/04/10 12:32:18;;;;;;;1.10;1.00;;;18.70;44.40;;;;;;4955462;29;20409;-66
2023/04/10 12:34:57;;;;;;;0.80;0.77;;;18.60;44.70;;;;;;4937731;29;20456;-66
2023/04/10 12:37:50;;;;;;;0.50;0.50;;;18.60;44.20;;;;;;4962056;28;20450;-66
2023/04/10 12:40:16;;;;;;;0.40;0.40;;;18.60;43.60;;;;;;4964798;28;20483;-67
2023/04/10 12:42:42;;;;;;;1.00;0.90;;;18.60;44.30;;;;;;4974748;28;20877;-67
2023/04/10 12:45:09;;;;;;;0.70;0.57;;;18.70;43.90;;;;;;4974399;28;20433;-65
2023/04/10 12:47:45;;;;;;;0.70;0.70;;;18.80;44.30;;;;;;4974629;28;20459;-66
2023/04/10 12:50:13;;;;;;;0.90;0.90;;;18.80;45.00;;;;;;4974590;28;20431;-67
2023/04/10 12:52:41;;;;;;;0.77;0.60;;;18.90;46.00;;;;;;4974324;28;20423;-67
2023/04/10 12:55:15;;;;;;;0.63;0.50;;;19.00;44.50;;;;;;4974131;28;20420;-66
2023/04/10 12:57:44;;;;;;;0.70;0.70;;;19.00;45.00;;;;;;4974871;28;20403;-66
2023/04/10 13:00:15;;;;;;;0.70;0.70;;;19.10;45.00;;;;;;4974497;28;20381;-67
2023/04/10 13:02:42;;;;;;;1.10;0.70;;;19.10;45.20;;;;;;4974533;28;20767;-66
2023/04/10 13:05:08;;;;;;;0.93;0.90;;;19.20;44.90;;;;;;4973485;28;20450;-66
2023/04/10 13:07:35;;;;;;;1.47;1.00;;;19.20;45.20;;;;;;4936000;29;20453;-68
2023/04/10 13:10:00;;;;;;;0.60;0.60;;;19.30;45.70;;;;;;4919006;29;20449;-66
2023/04/10 13:12:27;;;;;;;0.60;0.60;;;19.30;44.70;;;;;;4935902;29;20835;-65
2023/04/10 13:14:53;;;;;;;1.10;1.10;;;19.40;44.60;;;;;;4935584;29;20276;-66
2023/04/10 13:17:28;;;;;;;0.70;0.70;;;19.50;45.10;;;;;;4935867;29;20475;-65
2023/04/10 13:19:53;;;;;;;0.70;0.70;;;19.60;44.80;;;;;;4919387;28;20177;-67
2023/04/10 13:22:20;;;;;;;1.30;0.77;;;19.70;45.60;;;;;;4955792;28;20443;-67
2023/04/10 13:24:45;;;;;;;0.70;0.70;;;19.80;45.00;;;;;;4941214;29;20573;-65
2023/04/10 13:27:12;;;;;;;1.23;0.80;;;19.90;45.40;;;;;;4958780;29;20456;-67
2023/04/10 13:29:41;;;;;;;0.83;0.80;;;20.00;45.00;;;;;;4958642;29;20177;-67
2023/04/10 13:32:07;;;;;;;0.90;0.90;;;20.00;45.70;;;;;;4958942;29;20759;-67
2023/04/10 13:34:33;;;;;;;0.67;0.67;;;20.10;45.70;;;;;;4957872;29;20428;-67
2023/04/10 13:36:59;;;;;;;1.37;1.00;;;20.00;45.70;;;;;;4958803;29;20182;-67
2023/04/10 13:39:30;;;;;;;0.97;0.83;;;20.00;45.90;;;;;;4941388;29;20455;-66
2023/04/10 13:41:56;;;;;;;0.80;0.80;;;19.90;45.80;;;;;;4958838;29;20991;-66
2023/04/10 13:44:22;;;;;;;0.87;0.87;;;19.90;46.10;;;;;;4958222;29;20468;-66
2023/04/10 13:46:48;;;;;;;0.97;0.93;;;19.90;45.80;;;;;;4958674;29;20491;-66
2023/04/10 13:49:16;;;;;;;0.63;0.63;;;19.90;45.50;;;;;;4958405;28;20169;-67
2023/04/10 13:51:43;;;;;;;0.63;0.60;;;19.90;46.00;;;;;;4941161;29;20173;-67
2023/04/10 13:54:09;;;;;;;1.03;1.03;;;19.90;46.90;;;;;;4957827;29;21013;-67
2023/04/10 13:56:35;;;;;;;0.60;0.60;;;20.00;46.60;;;;;;4958241;29;20408;-66
2023/04/10 13:59:01;;;;;;;0.70;0.70;;;20.20;47.30;;;;;;4958304;29;20418;-66
2023/04/10 14:01:27;;;;;;;1.67;0.70;;;20.20;46.80;;;;;;4958045;29;20525;-67
2023/04/10 14:03:52;;;;;;;0.80;0.80;;;20.20;46.70;;;;;;4940169;29;20718;-66
2023/04/10 14:06:18;;;;;;;0.93;0.70;;;20.20;45.40;;;;;;4957965;28;20272;-66
2023/04/10 14:08:44;;;;;;;0.80;0.80;;;20.20;46.40;;;;;;4958133;29;20177;-66
2023/04/10 14:11:09;;;;;;;0.67;0.67;;;20.20;46.00;;;;;;4958273;29;20223;-66
2023/04/10 14:13:35;;;;;;;0.70;0.70;;;20.20;45.90;;;;;;4957811;29;20169;-66
2023/04/10 14:16:02;;;;;;;0.80;0.80;;;20.20;45.80;;;;;;4958043;29;20838;-66
2023/04/10 14:18:28;;;;;;;0.47;0.47;;;20.10;45.30;;;;;;4957665;29;20223;-67
2023/04/10 14:20:54;;;;;;;1.10;1.00;;;20.00;45.40;;;;;;4940725;29;20873;-65
2023/04/10 14:23:21;;;;;;;0.73;0.63;;;19.80;45.30;;;;;;4957619;29;20543;-67
2023/04/10 14:25:48;;;;;;;0.63;0.63;;;19.80;45.90;;;;;;4957831;29;20492;-67
2023/04/10 14:28:17;;;;;;;0.83;0.83;;;19.80;45.90;;;;;;4957798;29;20408;-66
2023/04/10 14:30:47;;;;;;;0.60;0.60;;;19.80;45.80;;;;;;4957803;29;20763;-66
2023/04/10 14:33:13;;;;;;;0.83;0.77;;;19.80;46.20;;;;;;4957144;29;20446;-66
2023/04/10 14:35:39;;;;;;;0.70;0.70;;;19.80;45.90;;;;;;4957126;28;20437;-66
2023/04/10 14:38:05;;;;;;;1.10;1.10;;;19.80;46.20;;;;;;4957751;29;20420;-65
2023/04/10 14:40:30;;;;;;;1.70;0.80;;;19.80;46.20;;;;;;4958100;29;20168;-67
2023/04/10 14:42:56;;;;;;;0.80;0.80;;;19.80;46.20;;;;;;4957455;29;20440;-67
2023/04/10 14:45:21;;;;;;;0.70;0.70;;;19.80;46.30;;;;;;4957705;29;20207;-66
2023/04/10 14:47:47;;;;;;;0.90;0.70;;;19.80;46.40;;;;;;4957447;29;20197;-67
2023/04/10 14:50:13;;;;;;;1.30;1.20;;;19.80;46.70;;;;;;4940919;29;20711;-67
2023/04/10 14:52:38;;;;;;;0.67;0.60;;;19.80;46.30;;;;;;4967154;28;20500;-67
2023/04/10 14:55:05;;;;;;;0.83;0.83;;;19.70;46.90;;;;;;4977262;28;20191;-66
2023/04/10 14:57:31;;;;;;;0.70;0.70;;;19.70;46.80;;;;;;4977477;28;20176;-66
2023/04/10 14:59:59;;;;;;;1.40;1.20;;;19.80;46.30;;;;;;4977692;28;20408;-66
2023/04/10 15:02:24;;;;;;;0.53;0.53;;;19.80;46.40;;;;;;4977654;28;20207;-68
2023/04/10 15:04:50;;;;;;;0.93;0.93;;;19.70;46.60;;;;;;4978257;28;20447;-67
2023/04/10 15:07:15;;;;;;;0.87;0.70;;;19.60;47.30;;;;;;4976379;28;20262;-66
2023/04/10 15:09:43;;;;;;;0.90;0.90;;;19.60;46.90;;;;;;4976135;28;20646;-66
2023/04/10 15:12:09;;;;;;;0.70;0.70;;;19.60;47.00;;;;;;4976627;28;20164;-66
2023/04/10 15:14:34;;;;;;;0.97;0.97;;;19.50;47.00;;;;;;4976563;28;20918;-66
2023/04/10 15:17:00;;;;;;;0.90;0.70;;;19.50;47.10;;;;;;4968174;28;20424;-67
2023/04/10 15:19:25;;;;;;;1.03;0.93;;;19.40;47.30;;;;;;4957633;28;20181;-66
2023/04/10 15:21:52;;;;;;;1.03;1.03;;;19.40;48.00;;;;;;4940477;29;20658;-66
2023/04/10 15:24:18;;;;;;;0.67;0.67;;;19.40;47.40;;;;;;4959219;29;20189;-66
2023/04/10 15:26:44;;;;;;;0.83;0.60;;;19.50;46.50;;;;;;4956847;29;20452;-66
2023/04/10 15:29:10;;;;;;;0.70;0.57;;;19.40;46.60;;;;;;4956799;29;20196;-66
2023/04/10 15:31:36;;;;;;;0.70;0.70;;;19.30;47.40;;;;;;4956450;29;20828;-67
2023/04/10 15:34:01;;;;;;;0.80;0.80;;;19.30;46.70;;;;;;4956124;29;20424;-66
2023/04/10 15:36:27;;;;;;;1.13;1.03;;;19.20;47.10;;;;;;4939513;29;20532;-67
2023/04/10 15:38:53;;;;;;;0.70;0.60;;;19.20;46.50;;;;;;4956872;29;20169;-66
2023/04/10 15:41:22;;;;;;;0.87;0.87;;;19.20;46.70;;;;;;4939477;29;20421;-66
2023/04/10 15:43:47;;;;;;;0.50;0.50;;;19.10;47.10;;;;;;4956195;29;20196;-67
2023/04/10 15:46:14;;;;;;;1.60;1.03;;;19.10;47.80;;;;;;4968370;28;20843;-67
2023/04/10 15:48:40;;;;;;;0.90;0.90;;;19.10;47.50;;;;;;4975900;28;20215;-66
2023/04/10 15:51:06;;;;;;;0.73;0.73;;;19.00;47.70;;;;;;4958385;28;20495;-66
2023/04/10 15:53:32;;;;;;;0.80;0.60;;;18.90;47.60;;;;;;4975062;28;20176;-66
2023/04/10 15:55:58;;;;;;;1.10;1.10;;;18.80;47.90;;;;;;4958123;28;20192;-67
2023/04/10 15:58:24;;;;;;;0.70;0.70;;;18.80;48.00;;;;;;4975474;28;20499;-67
2023/04/10 16:00:49;;;;;;;0.60;0.60;;;18.80;48.20;;;;;;4975710;28;20169;-66
2023/04/10 16:03:15;;;;;;;0.87;0.67;;;18.80;48.60;;;;;;4975070;28;20200;-66
2023/04/10 16:05:40;;;;;;;0.97;0.87;;;18.70;49.10;;;;;;4975241;28;20539;-67
2023/04/10 16:08:06;;;;;;;0.90;0.90;;;18.80;49.00;;;;;;4971624;28;20212;-67
2023/04/10 16:10:31;;;;;;;0.70;0.63;;;18.70;49.60;;;;;;4956293;29;20233;-66
2023/04/10 16:13:02;;;;;;;0.70;0.70;;;18.70;50.10;;;;;;4938667;29;20181;-68
2023/04/10 16:15:29;;;;;;;0.73;0.73;;;18.70;50.10;;;;;;4938659;29;20232;-66
2023/04/10 16:17:56;;;;;;;0.90;0.90;;;18.60;50.30;;;;;;4956027;29;20463;-66
2023/04/10 16:20:21;;;;;;;1.00;1.00;;;18.60;50.90;;;;;;4956198;29;20387;-66
2023/04/10 16:22:47;;;;;;;1.40;1.00;;;18.60;51.00;;;;;;4955512;29;20732;-66
2023/04/10 16:25:13;;;;;;;0.90;0.90;;;18.60;51.10;;;;;;4955307;29;20189;-68
2023/04/10 16:27:39;;;;;;;0.83;0.83;;;18.60;50.80;;;;;;4955660;29;20189;-66
2023/04/10 16:30:05;;;;;;;0.87;0.83;;;18.60;50.80;;;;;;4955573;29;20413;-66
2023/04/10 16:32:31;;;;;;;1.27;0.80;;;18.50;50.90;;;;;;4955500;29;20179;-66
2023/04/10 16:34:57;;;;;;;0.67;0.67;;;18.50;51.30;;;;;;4955106;29;20843;-66
2023/04/10 16:37:22;;;;;;;1.50;1.40;;;18.40;51.20;;;;;;4955242;29;20484;-66
2023/04/10 16:39:48;;;;;;;0.97;0.97;;;18.40;51.30;;;;;;4955551;29;20177;-66
2023/04/10 16:42:14;;;;;;;1.40;0.77;;;18.30;51.50;;;;;;4955073;29;20538;-65
2023/04/10 16:44:39;;;;;;;0.80;0.73;;;18.30;51.80;;;;;;4954958;29;20193;-65
2023/04/10 16:47:05;;;;;;;0.60;0.57;;;18.30;52.10;;;;;;4937974;29;20679;-66
2023/04/10 16:49:31;;;;;;;1.07;0.97;;;18.30;52.30;;;;;;4955362;29;20169;-66
2023/04/10 16:51:56;;;;;;;1.07;1.07;;;18.30;52.40;;;;;;4955506;29;20703;-66
2023/04/10 16:54:22;;;;;;;1.90;0.97;;;18.20;52.20;;;;;;4954805;29;20250;-66
2023/04/10 16:56:47;;;;;;;1.10;1.10;;;18.20;52.40;;;;;;4937450;28;20289;-65